createdAt,value
2018-06-28T00:00:22.216Z,999.20
2018-06-28T00:01:22.398Z,999.22
2018-06-28T00:02:22.621Z,999.24
2018-06-28T00:03:22.774Z,999.24
2018-06-28T00:04:22.973Z,999.22
2018-06-28T00:05:23.124Z,999.21
2018-06-28T00:06:23.290Z,999.20
2018-06-28T00:07:23.468Z,999.23
2018-06-28T00:08:23.651Z,999.25
2018-06-28T00:09:23.831Z,999.21
2018-06-28T00:10:24.014Z,999.25
2018-06-28T00:11:24.194Z,999.22
2018-06-28T00:12:24.379Z,999.23
2018-06-28T00:13:24.554Z,999.21
2018-06-28T00:14:24.741Z,999.23
2018-06-28T00:15:24.912Z,999.21
2018-06-28T00:16:25.094Z,999.22
2018-06-28T00:17:25.278Z,999.21
2018-06-28T00:18:25.453Z,999.24
2018-06-28T00:19:25.878Z,999.20
2018-06-28T00:20:25.819Z,999.25
2018-06-28T00:21:25.997Z,999.25
2018-06-28T00:22:26.176Z,999.22
2018-06-28T00:23:26.366Z,999.23
2018-06-28T00:24:26.542Z,999.23
2018-06-28T00:25:26.725Z,999.26
2018-06-28T00:26:26.906Z,999.27
2018-06-28T00:27:27.080Z,999.29
2018-06-28T00:28:27.265Z,999.25
2018-06-28T00:29:27.450Z,999.26
2018-06-28T00:30:27.629Z,999.25
2018-06-28T00:31:27.803Z,999.26
2018-06-28T00:32:27.981Z,999.26
2018-06-28T00:33:28.168Z,999.23
2018-06-28T00:34:28.352Z,999.23
2018-06-28T00:35:28.529Z,999.21
2018-06-28T00:36:28.722Z,999.20
2018-06-28T00:37:28.893Z,999.17
2018-06-28T00:38:29.075Z,999.17
2018-06-28T00:39:29.261Z,999.14
2018-06-28T00:40:29.444Z,999.13
2018-06-28T00:41:29.618Z,999.15
2018-06-28T00:42:29.798Z,999.18
2018-06-28T00:43:29.983Z,999.19
2018-06-28T00:44:30.159Z,999.21
2018-06-28T00:45:30.346Z,999.20
2018-06-28T00:46:30.519Z,999.24
2018-06-28T00:47:30.702Z,999.27
2018-06-28T00:48:30.880Z,999.24
2018-06-28T00:49:31.063Z,999.20
2018-06-28T00:50:31.233Z,999.20
2018-06-28T00:51:31.416Z,999.21
2018-06-28T00:52:31.596Z,999.22
2018-06-28T00:53:31.776Z,999.19
2018-06-28T00:54:31.958Z,999.17
2018-06-28T00:55:32.136Z,999.20
2018-06-28T00:56:32.315Z,999.21
2018-06-28T00:57:32.494Z,999.19
2018-06-28T00:58:32.671Z,999.21
2018-06-28T00:59:32.854Z,999.20
2018-06-28T01:00:33.037Z,999.18
2018-06-28T01:01:33.231Z,999.19
2018-06-28T01:02:33.395Z,999.19
2018-06-28T01:03:33.819Z,999.17
2018-06-28T01:04:33.756Z,999.22
2018-06-28T01:05:33.925Z,999.19
2018-06-28T01:06:34.110Z,999.17
2018-06-28T01:07:34.289Z,999.14
2018-06-28T01:08:34.469Z,999.11
2018-06-28T01:09:34.646Z,999.08
2018-06-28T01:10:34.826Z,999.10
2018-06-28T01:11:35.009Z,999.09
2018-06-28T01:12:35.184Z,999.08
2018-06-28T01:14:35.543Z,999.02
2018-06-28T01:15:35.719Z,999.07
2018-06-28T01:16:35.901Z,999.08
2018-06-28T01:17:36.077Z,999.08
2018-06-28T01:18:36.301Z,999.04
2018-06-28T01:19:36.438Z,999.08
2018-06-28T01:20:36.616Z,999.04
2018-06-28T01:21:36.796Z,999.07
2018-06-28T01:22:36.974Z,999.09
2018-06-28T01:23:37.151Z,999.05
2018-06-28T01:24:37.339Z,999.09
2018-06-28T01:25:37.514Z,999.11
2018-06-28T01:26:37.693Z,999.14
2018-06-28T01:27:37.865Z,999.15
2018-06-28T01:28:38.029Z,999.15
2018-06-28T01:29:38.210Z,999.14
2018-06-28T01:30:38.394Z,999.06
2018-06-28T01:31:38.568Z,999.09
2018-06-28T01:32:38.751Z,999.06
2018-06-28T01:33:38.930Z,999.05
2018-06-28T01:34:39.111Z,999.04
2018-06-28T01:35:39.287Z,999.04
2018-06-28T01:36:39.470Z,999.03
2018-06-28T01:37:39.647Z,999.05
2018-06-28T01:38:39.823Z,999.01
2018-06-28T01:39:40.006Z,999.00
2018-06-28T01:40:40.182Z,999.01
2018-06-28T01:41:40.359Z,998.96
2018-06-28T01:42:40.542Z,998.97
2018-06-28T01:43:40.719Z,998.95
2018-06-28T01:44:40.900Z,998.94
2018-06-28T01:45:41.074Z,998.93
2018-06-28T01:46:41.302Z,998.92
2018-06-28T01:47:41.430Z,998.97
2018-06-28T01:48:41.604Z,998.99
2018-06-28T01:49:41.804Z,998.97
2018-06-28T01:50:41.997Z,998.98
2018-06-28T01:51:42.143Z,998.97
2018-06-28T01:52:42.318Z,998.95
2018-06-28T01:53:42.500Z,998.95
2018-06-28T01:54:42.674Z,998.97
2018-06-28T01:55:42.854Z,998.98
2018-06-28T01:56:43.038Z,999.02
2018-06-28T01:57:43.536Z,999.03
2018-06-28T01:58:43.396Z,998.98
2018-06-28T01:59:43.574Z,999.03
2018-06-28T02:00:43.753Z,999.01
2018-06-28T02:01:43.932Z,999.03
2018-06-28T02:02:44.119Z,999.04
2018-06-28T02:03:44.293Z,999.03
2018-06-28T02:04:44.475Z,999.03
2018-06-28T02:05:44.644Z,999.03
2018-06-28T02:06:44.821Z,999.08
2018-06-28T02:07:45.010Z,999.02
2018-06-28T02:08:45.180Z,999.02
2018-06-28T02:09:45.361Z,998.99
2018-06-28T02:10:45.581Z,998.99
2018-06-28T02:11:45.711Z,998.93
2018-06-28T02:12:45.895Z,998.96
2018-06-28T02:13:46.071Z,998.97
2018-06-28T02:14:46.257Z,998.95
2018-06-28T02:15:46.433Z,998.95
2018-06-28T02:16:46.618Z,998.98
2018-06-28T02:17:46.793Z,998.98
2018-06-28T02:18:46.974Z,998.99
2018-06-28T02:19:47.149Z,998.98
2018-06-28T02:20:47.325Z,998.97
2018-06-28T02:21:47.505Z,998.97
2018-06-28T02:22:47.693Z,999.01
2018-06-28T02:23:47.892Z,999.03
2018-06-28T02:24:48.052Z,998.98
2018-06-28T02:25:48.242Z,999.01
2018-06-28T02:26:48.401Z,999.00
2018-06-28T02:27:48.584Z,999.03
2018-06-28T02:28:48.756Z,999.05
2018-06-28T02:29:48.938Z,999.01
2018-06-28T02:30:49.125Z,999.02
2018-06-28T02:31:49.294Z,999.02
2018-06-28T02:32:49.470Z,999.02
2018-06-28T02:33:49.650Z,999.00
2018-06-28T02:34:50.078Z,999.02
2018-06-28T02:35:50.014Z,999.05
2018-06-28T02:36:50.179Z,999.04
2018-06-28T02:37:50.362Z,999.05
2018-06-28T02:38:50.541Z,998.99
2018-06-28T02:39:50.722Z,998.98
2018-06-28T02:40:50.895Z,999.02
2018-06-28T02:41:51.081Z,998.99
2018-06-28T02:42:51.261Z,998.98
2018-06-28T02:43:51.434Z,998.95
2018-06-28T02:44:51.699Z,998.94
2018-06-28T02:45:51.801Z,998.92
2018-06-28T02:46:51.977Z,998.90
2018-06-28T02:47:52.159Z,998.92
2018-06-28T02:48:52.355Z,998.84
2018-06-28T02:49:52.522Z,998.89
2018-06-28T02:50:52.701Z,998.86
2018-06-28T02:51:52.890Z,998.83
2018-06-28T02:52:53.061Z,998.82
2018-06-28T02:53:53.238Z,998.82
2018-06-28T02:55:53.591Z,998.79
2018-06-28T02:56:53.770Z,998.79
2018-06-28T02:57:53.945Z,998.76
2018-06-28T02:58:54.127Z,998.75
2018-06-28T02:59:54.304Z,998.72
2018-06-28T03:00:54.480Z,998.70
2018-06-28T03:01:54.666Z,998.72
2018-06-28T03:02:54.840Z,998.74
2018-06-28T03:03:55.009Z,998.70
2018-06-28T03:05:55.371Z,998.73
2018-06-28T03:06:55.549Z,998.71
2018-06-28T03:07:55.732Z,998.69
2018-06-28T03:08:55.902Z,998.73
2018-06-28T03:09:56.086Z,998.77
2018-06-28T03:10:56.267Z,998.77
2018-06-28T03:11:56.436Z,998.76
2018-06-28T03:12:56.616Z,998.77
2018-06-28T03:13:56.794Z,998.79
2018-06-28T03:14:56.974Z,998.79
2018-06-28T03:15:57.153Z,998.77
2018-06-28T03:16:57.330Z,998.79
2018-06-28T03:17:57.510Z,998.82
2018-06-28T03:18:57.686Z,998.83
2018-06-28T03:19:57.867Z,998.84
2018-06-28T03:20:58.061Z,998.87
2018-06-28T03:21:58.245Z,998.86
2018-06-28T03:22:58.424Z,998.89
2018-06-28T03:23:58.599Z,998.89
2018-06-28T03:24:58.792Z,998.86
2018-06-28T03:25:58.953Z,998.93
2018-06-28T03:26:59.132Z,998.88
2018-06-28T03:27:59.318Z,998.89
2018-06-28T03:28:59.494Z,998.88
2018-06-28T03:29:59.665Z,998.85
2018-06-28T03:31:00.001Z,998.87
2018-06-28T03:32:00.033Z,998.84
2018-06-28T03:33:00.207Z,998.88
2018-06-28T03:34:00.383Z,998.86
2018-06-28T03:35:00.546Z,998.84
2018-06-28T03:36:00.739Z,998.91
2018-06-28T03:37:00.909Z,998.91
2018-06-28T03:38:01.176Z,998.92
2018-06-28T03:39:01.549Z,998.95
2018-06-28T03:40:01.445Z,998.92
2018-06-28T03:41:01.623Z,998.95
2018-06-28T03:42:01.802Z,998.93
2018-06-28T03:43:01.990Z,998.96
2018-06-28T03:44:02.176Z,998.98
2018-06-28T03:45:02.348Z,999.02
2018-06-28T03:46:02.528Z,998.97
2018-06-28T03:47:02.707Z,999.02
2018-06-28T03:48:02.887Z,999.01
2018-06-28T03:49:03.069Z,999.05
2018-06-28T03:50:03.244Z,999.03
2018-06-28T03:51:03.431Z,999.03
2018-06-28T03:52:03.603Z,999.03
2018-06-28T03:53:03.782Z,999.03
2018-06-28T03:54:03.960Z,999.07
2018-06-28T03:55:04.136Z,999.07
2018-06-28T03:56:04.315Z,999.04
2018-06-28T03:57:04.494Z,999.03
2018-06-28T03:58:04.665Z,999.08
2018-06-28T03:59:04.845Z,999.07
2018-06-28T04:00:05.021Z,999.02
2018-06-28T04:01:05.204Z,999.03
2018-06-28T04:02:05.379Z,999.05
2018-06-28T04:03:05.558Z,999.05
2018-06-28T04:04:05.736Z,999.07
2018-06-28T04:05:05.915Z,999.03
2018-06-28T04:06:06.095Z,999.08
2018-06-28T04:07:06.277Z,999.08
2018-06-28T04:08:06.459Z,999.09
2018-06-28T04:09:06.636Z,999.09
2018-06-28T04:10:06.813Z,999.09
2018-06-28T04:11:06.992Z,999.05
2018-06-28T04:12:07.180Z,999.07
2018-06-28T04:13:07.359Z,999.06
2018-06-28T04:14:07.537Z,999.06
2018-06-28T04:15:07.718Z,999.11
2018-06-28T04:16:07.895Z,999.18
2018-06-28T04:17:08.087Z,999.32
2018-06-28T04:18:08.254Z,999.27
2018-06-28T04:19:08.445Z,999.23
2018-06-28T04:20:08.620Z,999.24
2018-06-28T04:21:08.796Z,999.35
2018-06-28T04:22:08.980Z,999.33
2018-06-28T04:23:09.152Z,999.28
2018-06-28T04:24:09.333Z,999.29
2018-06-28T04:25:09.513Z,999.27
2018-06-28T04:27:09.869Z,999.24
2018-06-28T04:28:10.053Z,999.11
2018-06-28T04:29:10.228Z,999.08
2018-06-28T04:30:10.402Z,999.06
2018-06-28T04:31:10.592Z,999.10
2018-06-28T04:32:10.768Z,999.10
2018-06-28T04:33:11.328Z,999.10
2018-06-28T04:34:11.152Z,999.13
2018-06-28T04:35:11.342Z,999.14
2018-06-28T04:36:11.502Z,999.16
2018-06-28T04:37:11.678Z,999.23
2018-06-28T04:38:11.862Z,999.29
2018-06-28T04:39:12.045Z,999.40
2018-06-28T04:40:12.234Z,999.41
2018-06-28T04:41:12.417Z,999.43
2018-06-28T04:42:12.597Z,999.45
2018-06-28T04:43:12.776Z,999.46
2018-06-28T04:44:12.965Z,999.45
2018-06-28T04:45:13.163Z,999.46
2018-06-28T04:46:13.350Z,999.47
2018-06-28T04:47:13.533Z,999.50
2018-06-28T04:48:13.714Z,999.52
2018-06-28T04:49:13.903Z,999.56
2018-06-28T04:50:14.086Z,999.56
2018-06-28T04:51:14.268Z,999.55
2018-06-28T04:52:14.445Z,999.55
2018-06-28T04:53:14.632Z,999.58
2018-06-28T04:54:14.809Z,999.62
2018-06-28T04:55:14.990Z,999.59
2018-06-28T04:56:15.175Z,999.59
2018-06-28T04:57:15.461Z,999.59
2018-06-28T04:58:15.554Z,999.61
2018-06-28T04:59:15.754Z,999.67
2018-06-28T05:00:15.921Z,999.63
2018-06-28T05:01:16.165Z,999.67
2018-06-28T05:02:16.299Z,999.54
2018-06-28T05:03:16.488Z,999.52
2018-06-28T05:04:16.678Z,999.55
2018-06-28T05:05:16.871Z,999.46
2018-06-28T05:06:17.057Z,999.47
2018-06-28T05:07:17.531Z,999.50
2018-06-28T05:08:17.432Z,999.55
2018-06-28T05:09:17.631Z,999.56
2018-06-28T05:10:17.810Z,999.61
2018-06-28T05:11:17.993Z,999.62
2018-06-28T05:12:18.173Z,999.59
2018-06-28T05:13:18.365Z,999.55
2018-06-28T05:14:18.631Z,999.59
2018-06-28T05:15:18.738Z,999.62
2018-06-28T05:16:18.922Z,999.58
2018-06-28T05:17:19.115Z,999.54
2018-06-28T05:18:19.550Z,999.55
2018-06-28T05:19:19.493Z,999.60
2018-06-28T05:20:19.688Z,999.61
2018-06-28T05:21:19.887Z,999.49
2018-06-28T05:22:20.069Z,999.41
2018-06-28T05:23:20.330Z,999.37
2018-06-28T05:24:20.448Z,999.41
2018-06-28T05:25:20.643Z,999.37
2018-06-28T05:26:20.832Z,999.36
2018-06-28T05:27:21.025Z,999.35
2018-06-28T05:28:21.228Z,999.28
2018-06-28T05:29:21.403Z,999.32
2018-06-28T05:30:21.597Z,999.36
2018-06-28T05:31:21.778Z,999.44
2018-06-28T05:32:22.233Z,999.51
2018-06-28T05:33:22.157Z,999.53
2018-06-28T05:34:22.342Z,999.51
2018-06-28T05:35:22.536Z,999.30
2018-06-28T05:36:22.733Z,999.31
2018-06-28T05:37:22.919Z,999.28
2018-06-28T05:38:23.099Z,999.24
2018-06-28T05:39:23.584Z,999.21
2018-06-28T05:40:23.488Z,999.21
2018-06-28T05:41:23.673Z,999.22
2018-06-28T05:42:23.870Z,999.21
2018-06-28T05:43:24.064Z,999.21
2018-06-28T05:44:24.254Z,999.27
2018-06-28T05:45:24.450Z,999.29
2018-06-28T05:46:24.866Z,999.32
2018-06-28T05:47:24.819Z,999.27
2018-06-28T05:48:25.008Z,999.29
2018-06-28T05:49:25.205Z,999.24
2018-06-28T05:50:25.389Z,999.24
2018-06-28T05:51:25.591Z,999.18
2018-06-28T05:52:25.770Z,999.19
2018-06-28T05:53:26.201Z,999.13
2018-06-28T05:54:26.148Z,999.14
2018-06-28T05:55:26.745Z,999.12
2018-06-28T05:56:26.538Z,999.08
2018-06-28T05:57:26.739Z,999.09
2018-06-28T05:58:26.924Z,999.07
2018-06-28T05:59:27.111Z,999.08
2018-06-28T06:00:28.171Z,999.09
2018-06-28T06:01:27.497Z,999.14
2018-06-28T06:02:27.677Z,999.12
2018-06-28T06:03:27.855Z,999.18
2018-06-28T06:04:28.054Z,999.20
2018-06-28T06:05:28.236Z,999.19
2018-06-28T06:06:28.430Z,999.19
2018-06-28T06:07:28.612Z,999.15
2018-06-28T06:08:28.802Z,999.20
2018-06-28T06:09:29.011Z,999.23
2018-06-28T06:11:29.371Z,999.21
2018-06-28T06:12:29.553Z,999.20
2018-06-28T06:13:29.746Z,999.20
2018-06-28T06:14:30.180Z,999.18
2018-06-28T06:15:30.124Z,999.18
2018-06-28T06:16:30.334Z,999.17
2018-06-28T06:17:30.507Z,999.20
2018-06-28T06:18:30.703Z,999.19
2018-06-28T06:19:30.932Z,999.18
2018-06-28T06:20:31.072Z,999.20
2018-06-28T06:21:31.275Z,999.22
2018-06-28T06:22:31.449Z,999.21
2018-06-28T06:23:31.642Z,999.20
2018-06-28T06:24:31.835Z,999.20
2018-06-28T06:25:32.042Z,999.22
2018-06-28T06:26:32.231Z,999.22
2018-06-28T06:27:32.429Z,999.18
2018-06-28T06:28:32.612Z,999.19
2018-06-28T06:29:32.847Z,999.20
2018-06-28T06:30:32.998Z,999.14
2018-06-28T06:31:33.189Z,999.14
2018-06-28T06:32:33.381Z,999.10
2018-06-28T06:33:33.577Z,999.13
2018-06-28T06:34:33.830Z,999.10
2018-06-28T06:35:34.202Z,999.12
2018-06-28T06:36:34.153Z,999.08
2018-06-28T06:37:34.325Z,999.00
2018-06-28T06:38:34.510Z,998.93
2018-06-28T06:39:34.698Z,998.97
2018-06-28T06:40:34.892Z,998.95
2018-06-28T06:41:35.082Z,998.96
2018-06-28T06:43:35.454Z,998.95
2018-06-28T06:44:35.649Z,999.01
2018-06-28T06:45:35.880Z,999.01
2018-06-28T06:46:36.021Z,999.02
2018-06-28T06:47:36.216Z,999.02
2018-06-28T06:48:36.401Z,998.97
2018-06-28T06:49:36.589Z,999.00
2018-06-28T06:50:36.783Z,998.97
2018-06-28T06:51:36.972Z,999.02
2018-06-28T06:52:37.170Z,999.05
2018-06-28T06:53:37.351Z,999.04
2018-06-28T06:54:37.559Z,999.01
2018-06-28T06:55:37.725Z,998.96
2018-06-28T06:56:37.918Z,998.95
2018-06-28T06:57:38.131Z,998.95
2018-06-28T06:58:38.294Z,998.94
2018-06-28T06:59:38.482Z,999.00
2018-06-28T07:00:38.674Z,998.95
2018-06-28T07:01:38.869Z,998.98
2018-06-28T07:02:39.059Z,998.98
2018-06-28T07:04:39.424Z,998.95
2018-06-28T07:05:39.615Z,998.94
2018-06-28T07:06:39.815Z,998.95
2018-06-28T07:07:39.989Z,998.95
2018-06-28T07:08:40.185Z,998.94
2018-06-28T07:09:40.381Z,998.96
2018-06-28T07:10:40.570Z,998.92
2018-06-28T07:11:40.757Z,998.93
2018-06-28T07:12:40.948Z,998.91
2018-06-28T07:13:41.140Z,998.92
2018-06-28T07:14:41.328Z,998.93
2018-06-28T07:15:41.535Z,998.89
2018-06-28T07:16:41.703Z,998.85
2018-06-28T07:17:41.902Z,998.86
2018-06-28T07:18:42.089Z,998.81
2018-06-28T07:19:42.269Z,998.79
2018-06-28T07:20:42.463Z,998.82
2018-06-28T07:21:42.653Z,998.80
2018-06-28T07:22:42.847Z,998.77
2018-06-28T07:23:43.034Z,998.76
2018-06-28T07:24:43.231Z,998.72
2018-06-28T07:25:43.412Z,998.75
2018-06-28T07:26:43.607Z,998.72
2018-06-28T07:27:43.816Z,998.67
2018-06-28T07:28:44.035Z,998.65
2018-06-28T07:29:44.211Z,998.67
2018-06-28T07:30:44.396Z,998.67
2018-06-28T07:31:44.586Z,998.69
2018-06-28T07:32:44.778Z,998.72
2018-06-28T07:33:44.986Z,998.70
2018-06-28T07:34:45.154Z,998.74
2018-06-28T07:35:45.346Z,998.70
2018-06-28T07:36:45.539Z,998.64
2018-06-28T07:37:45.735Z,998.66
2018-06-28T07:38:45.909Z,998.64
2018-06-28T07:39:46.100Z,998.64
2018-06-28T07:40:46.316Z,998.69
2018-06-28T07:41:46.499Z,998.64
2018-06-28T07:42:46.689Z,998.58
2018-06-28T07:43:46.878Z,998.60
2018-06-28T07:44:47.072Z,998.59
2018-06-28T07:45:47.270Z,998.59
2018-06-28T07:46:47.468Z,998.59
2018-06-28T07:47:47.640Z,998.54
2018-06-28T07:48:47.836Z,998.57
2018-06-28T07:49:48.026Z,998.51
2018-06-28T07:50:48.239Z,998.52
2018-06-28T07:51:48.423Z,998.53
2018-06-28T07:52:48.632Z,998.52
2018-06-28T07:53:48.816Z,998.48
2018-06-28T07:54:48.986Z,998.47
2018-06-28T07:55:49.176Z,998.46
2018-06-28T07:56:49.357Z,998.42
2018-06-28T07:57:49.582Z,998.44
2018-06-28T07:58:49.788Z,998.41
2018-06-28T07:59:49.983Z,998.43
2018-06-28T08:00:50.172Z,998.32
2018-06-28T08:01:50.354Z,998.35
2018-06-28T08:02:50.562Z,998.33
2018-06-28T08:03:50.740Z,998.32
2018-06-28T08:04:50.978Z,998.31
2018-06-28T08:05:51.130Z,998.28
2018-06-28T08:06:51.308Z,998.27
2018-06-28T08:07:51.505Z,998.23
2018-06-28T08:08:51.699Z,998.24
2018-06-28T08:09:51.953Z,998.21
2018-06-28T08:10:52.082Z,998.19
2018-06-28T08:11:52.275Z,998.20
2018-06-28T08:12:52.459Z,998.21
2018-06-28T08:13:52.658Z,998.21
2018-06-28T08:14:52.842Z,998.22
2018-06-28T08:15:53.028Z,998.14
2018-06-28T08:16:53.233Z,998.19
2018-06-28T08:17:53.659Z,998.17
2018-06-28T08:18:53.597Z,998.16
2018-06-28T08:19:53.794Z,998.18
2018-06-28T08:20:53.982Z,998.08
2018-06-28T08:21:54.174Z,998.10
2018-06-28T08:22:54.361Z,998.11
2018-06-28T08:23:54.552Z,998.09
2018-06-28T08:24:54.750Z,998.03
2018-06-28T08:25:54.942Z,998.03
2018-06-28T08:26:55.168Z,998.09
2018-06-28T08:27:55.315Z,998.07
2018-06-28T08:28:55.508Z,998.08
2018-06-28T08:29:55.699Z,998.11
2018-06-28T08:30:55.892Z,998.08
2018-06-28T08:31:56.075Z,998.09
2018-06-28T08:32:56.269Z,998.12
2018-06-28T08:33:56.459Z,998.12
2018-06-28T08:34:56.629Z,998.05
2018-06-28T08:35:56.859Z,998.06
2018-06-28T08:36:57.002Z,998.01
2018-06-28T08:37:57.189Z,998.01
2018-06-28T08:38:57.392Z,997.99
2018-06-28T08:39:57.563Z,998.08
2018-06-28T08:40:57.753Z,998.08
2018-06-28T08:41:57.949Z,998.08
2018-06-28T08:42:58.144Z,998.04
2018-06-28T08:43:58.337Z,998.01
2018-06-28T08:44:58.524Z,998.01
2018-06-28T08:45:58.715Z,998.02
2018-06-28T08:46:58.900Z,998.02
2018-06-28T08:47:59.089Z,998.01
2018-06-28T08:48:59.281Z,997.98
2018-06-28T08:49:59.478Z,997.98
2018-06-28T08:50:59.651Z,997.97
2018-06-28T08:51:59.847Z,997.95
2018-06-28T08:53:00.047Z,997.97
2018-06-28T08:54:00.219Z,997.96
2018-06-28T08:55:00.414Z,997.94
2018-06-28T08:56:00.590Z,997.97
2018-06-28T08:57:00.780Z,997.99
2018-06-28T08:58:01.096Z,997.96
2018-06-28T08:59:01.150Z,998.07
2018-06-28T09:00:01.576Z,997.99
2018-06-28T09:01:01.529Z,997.96
2018-06-28T09:02:01.715Z,998.02
2018-06-28T09:03:01.903Z,997.99
2018-06-28T09:04:02.109Z,998.00
2018-06-28T09:05:02.271Z,998.04
2018-06-28T09:06:02.462Z,998.01
2018-06-28T09:07:02.649Z,997.99
2018-06-28T09:08:02.837Z,997.93
2018-06-28T09:09:03.034Z,997.93
2018-06-28T09:10:03.228Z,997.94
2018-06-28T09:11:03.397Z,997.87
2018-06-28T09:12:03.583Z,997.93
2018-06-28T09:13:03.773Z,997.89
2018-06-28T09:14:04.198Z,997.89
2018-06-28T09:15:04.149Z,997.88
2018-06-28T09:16:04.340Z,997.84
2018-06-28T09:17:04.525Z,997.91
2018-06-28T09:18:04.727Z,997.82
2018-06-28T09:19:04.904Z,997.80
2018-06-28T09:20:05.100Z,997.81
2018-06-28T09:21:05.281Z,997.80
2018-06-28T09:22:05.519Z,997.79
2018-06-28T09:23:05.714Z,997.77
2018-06-28T09:24:05.848Z,997.78
2018-06-28T09:25:06.029Z,997.82
2018-06-28T09:26:06.220Z,997.87
2018-06-28T09:27:06.406Z,997.80
2018-06-28T09:28:06.623Z,997.86
2018-06-28T09:29:06.792Z,997.85
2018-06-28T09:30:06.992Z,997.81
2018-06-28T09:31:07.452Z,997.84
2018-06-28T09:32:07.350Z,997.78
2018-06-28T09:33:07.532Z,997.74
2018-06-28T09:34:07.720Z,997.75
2018-06-28T09:35:07.923Z,997.72
2018-06-28T09:36:08.127Z,997.66
2018-06-28T09:37:08.320Z,997.63
2018-06-28T09:38:08.513Z,997.65
2018-06-28T09:39:08.699Z,997.62
2018-06-28T09:40:08.893Z,997.67
2018-06-28T09:41:09.088Z,997.62
2018-06-28T09:42:09.282Z,997.61
2018-06-28T09:43:09.445Z,997.61
2018-06-28T09:44:09.717Z,997.59
2018-06-28T09:45:09.904Z,997.59
2018-06-28T09:46:10.095Z,997.56
2018-06-28T09:47:10.281Z,997.51
2018-06-28T09:48:10.474Z,997.50
2018-06-28T09:49:10.668Z,997.44
2018-06-28T09:50:10.832Z,997.46
2018-06-28T09:51:11.026Z,997.41
2018-06-28T09:52:11.207Z,997.41
2018-06-28T09:53:11.386Z,997.34
2018-06-28T09:54:11.588Z,997.38
2018-06-28T09:55:11.772Z,997.34
2018-06-28T09:56:11.963Z,997.28
2018-06-28T09:57:12.134Z,997.37
2018-06-28T09:58:12.312Z,997.26
2018-06-28T09:59:12.521Z,997.27
2018-06-28T10:00:12.717Z,997.22
2018-06-28T10:01:12.893Z,997.28
2018-06-28T10:02:13.092Z,997.21
2018-06-28T10:03:13.272Z,997.28
2018-06-28T10:04:13.449Z,997.23
2018-06-28T10:05:13.632Z,997.09
2018-06-28T10:06:13.821Z,997.15
2018-06-28T10:07:14.006Z,997.11
2018-06-28T10:08:14.196Z,997.11
2018-06-28T10:09:14.397Z,997.09
2018-06-28T10:10:14.637Z,997.12
2018-06-28T10:11:14.753Z,997.17
2018-06-28T10:12:14.937Z,997.13
2018-06-28T10:13:15.185Z,997.06
2018-06-28T10:14:15.325Z,997.08
2018-06-28T10:15:15.511Z,997.09
2018-06-28T10:16:15.699Z,997.06
2018-06-28T10:17:15.890Z,997.06
2018-06-28T10:18:16.093Z,997.08
2018-06-28T10:19:16.268Z,997.05
2018-06-28T10:20:16.467Z,997.00
2018-06-28T10:21:16.662Z,997.02
2018-06-28T10:22:16.829Z,996.96
2018-06-28T10:23:17.017Z,997.04
2018-06-28T10:24:17.198Z,997.02
2018-06-28T10:25:17.387Z,996.96
2018-06-28T10:26:17.572Z,996.96
2018-06-28T10:27:17.761Z,997.05
2018-06-28T10:28:17.946Z,996.84
2018-06-28T10:29:18.138Z,996.90
2018-06-28T10:30:18.327Z,996.81
2018-06-28T10:31:18.522Z,996.83
2018-06-28T10:32:18.709Z,996.88
2018-06-28T10:33:18.891Z,996.86
2018-06-28T10:34:19.087Z,996.86
2018-06-28T10:35:19.260Z,996.87
2018-06-28T10:36:19.454Z,996.88
2018-06-28T10:37:19.643Z,996.89
2018-06-28T10:38:19.840Z,996.97
2018-06-28T10:39:20.032Z,996.95
2018-06-28T10:40:20.209Z,996.89
2018-06-28T10:41:20.394Z,996.78
2018-06-28T10:42:20.581Z,996.86
2018-06-28T10:43:20.772Z,996.89
2018-06-28T10:44:20.957Z,996.86
2018-06-28T10:45:21.146Z,996.83
2018-06-28T10:46:21.325Z,996.75
2018-06-28T10:47:21.516Z,996.83
2018-06-28T10:48:21.758Z,996.81
2018-06-28T10:49:21.903Z,996.83
2018-06-28T10:50:22.128Z,996.79
2018-06-28T10:51:22.277Z,996.78
2018-06-28T10:52:22.459Z,996.80
2018-06-28T10:53:22.651Z,996.76
2018-06-28T10:54:22.835Z,996.77
2018-06-28T10:55:23.023Z,996.78
2018-06-28T10:56:23.241Z,996.79
2018-06-28T10:57:23.399Z,996.70
2018-06-28T10:58:23.581Z,996.74
2018-06-28T10:59:23.770Z,996.64
2018-06-28T11:00:23.953Z,996.66
2018-06-28T11:01:24.134Z,996.68
2018-06-28T11:02:24.325Z,996.70
2018-06-28T11:03:24.513Z,996.72
2018-06-28T11:04:24.704Z,996.67
2018-06-28T11:05:24.894Z,996.65
2018-06-28T11:06:25.079Z,996.71
2018-06-28T11:07:25.311Z,996.66
2018-06-28T11:08:25.514Z,996.71
2018-06-28T11:09:25.657Z,996.63
2018-06-28T11:10:25.837Z,996.62
2018-06-28T11:11:26.027Z,996.68
2018-06-28T11:12:26.215Z,996.67
2018-06-28T11:13:26.404Z,996.67
2018-06-28T11:14:26.591Z,996.72
2018-06-28T11:15:26.783Z,996.66
2018-06-28T11:16:27.217Z,996.56
2018-06-28T11:17:27.157Z,996.62
2018-06-28T11:18:27.464Z,996.61
2018-06-28T11:19:27.528Z,996.58
2018-06-28T11:20:27.729Z,996.63
2018-06-28T11:21:27.897Z,996.60
2018-06-28T11:22:28.081Z,996.61
2018-06-28T11:23:28.275Z,996.55
2018-06-28T11:24:28.459Z,996.52
2018-06-28T11:25:28.657Z,996.51
2018-06-28T11:26:28.826Z,996.51
2018-06-28T11:27:29.004Z,996.51
2018-06-28T11:28:29.194Z,996.49
2018-06-28T11:29:29.387Z,996.50
2018-06-28T11:30:29.568Z,996.42
2018-06-28T11:31:29.755Z,996.43
2018-06-28T11:32:29.940Z,996.44
2018-06-28T11:33:30.130Z,996.46
2018-06-28T11:34:30.318Z,996.43
2018-06-28T11:35:30.501Z,996.41
2018-06-28T11:36:30.687Z,996.35
2018-06-28T11:37:30.877Z,996.31
2018-06-28T11:38:31.062Z,996.30
2018-06-28T11:39:31.253Z,996.27
2018-06-28T11:41:31.626Z,996.22
2018-06-28T11:42:31.808Z,996.18
2018-06-28T11:43:31.997Z,996.16
2018-06-28T11:44:32.203Z,996.15
2018-06-28T11:45:32.370Z,996.16
2018-06-28T11:46:32.565Z,996.20
2018-06-28T11:47:32.745Z,996.21
2018-06-28T11:48:32.931Z,996.15
2018-06-28T11:49:33.122Z,996.06
2018-06-28T11:50:33.304Z,996.06
2018-06-28T11:51:33.496Z,996.05
2018-06-28T11:52:33.679Z,996.04
2018-06-28T11:53:33.865Z,995.99
2018-06-28T11:54:34.058Z,996.05
2018-06-28T11:55:34.246Z,996.01
2018-06-28T11:56:34.428Z,996.06
2018-06-28T11:57:34.611Z,995.98
2018-06-28T11:58:34.819Z,996.01
2018-06-28T11:59:35.000Z,995.92
2018-06-28T12:00:35.180Z,995.95
2018-06-28T12:01:35.387Z,995.89
2018-06-28T12:02:35.561Z,995.86
2018-06-28T12:03:35.743Z,995.87
2018-06-28T12:04:35.932Z,995.86
2018-06-28T12:05:36.125Z,995.79
2018-06-28T12:06:36.301Z,995.79
2018-06-28T12:07:36.489Z,995.79
2018-06-28T12:08:36.677Z,995.81
2018-06-28T12:09:36.865Z,995.87
2018-06-28T12:10:37.049Z,995.82
2018-06-28T12:11:37.237Z,995.77
2018-06-28T12:12:37.423Z,995.72
2018-06-28T12:13:37.619Z,995.73
2018-06-28T12:14:37.794Z,995.72
2018-06-28T12:15:38.279Z,995.73
2018-06-28T12:16:38.175Z,995.72
2018-06-28T12:17:38.357Z,995.68
2018-06-28T12:18:38.597Z,995.66
2018-06-28T12:19:38.755Z,995.69
2018-06-28T12:20:38.944Z,995.70
2018-06-28T12:21:39.129Z,995.71
2018-06-28T12:22:39.315Z,995.64
2018-06-28T12:23:39.497Z,995.68
2018-06-28T12:24:39.685Z,995.69
2018-06-28T12:25:39.905Z,995.68
2018-06-28T12:26:40.057Z,995.58
2018-06-28T12:27:40.262Z,995.51
2018-06-28T12:28:40.445Z,995.59
2018-06-28T12:29:40.629Z,995.50
2018-06-28T12:30:40.821Z,995.57
2018-06-28T12:31:41.024Z,995.57
2018-06-28T12:32:41.227Z,995.47
2018-06-28T12:33:41.394Z,995.50
2018-06-28T12:34:41.571Z,995.48
2018-06-28T12:35:41.758Z,995.53
2018-06-28T12:36:41.948Z,995.47
2018-06-28T12:37:42.136Z,995.45
2018-06-28T12:38:42.337Z,995.51